^^
Station Historical Data
Daily Summary for February 16, 2018 Units:  Metric    English   Both
« Previous Day
Next Day »
Daily Weekly Monthly Yearly Custom
  High: Low: Average:
Temperature: -17.8 °C 18.8 °C 23.8 °C
Dew Point: -17.8 °C 7.5 °C 10.9 °C
Humidity: Humidity% 21% 47%
Wind Speed: 0km/h 0km/h 14.3km/h
Wind Gust: 0km/h - -
Wind- - SSW
Pressure: 0 hPa 1003.6 hPa -
Precipitation: 0 mm    
Historical Graphs
 
 
Tabular Data for February 16, 2018
Time Temperature Dew Point Pressure Wind Wind Speed Wind Gust Humidity Rainfall Rate (Hourly) solar Conditions
-17.8 °C -17.8 °C 0 hPa Calm     Humidity% 0 mm SolarRadiationWatts/m^2 W/m2 Conditions
00:07 23.3 °C 10.7 °C 1007 hPa SSW 11.1 km/h 25.7 km/h 45% 0 mm 0.0 W/m2
00:12 23.2 °C 10.6 °C 1007 hPa SSW 20.9 km/h 22.5 km/h 45% 0 mm 0.0 W/m2
00:22 23.1 °C 11.2 °C 1007 hPa SSW 19.5 km/h 24.1 km/h 47% 0 mm 0.0 W/m2
00:27 22.9 °C 11.6 °C 1007.3 hPa SSW 19.5 km/h 24.1 km/h 49% 0 mm 0.0 W/m2
00:33 22.7 °C 11.4 °C 1007 hPa SSW 16.3 km/h 22.5 km/h 49% 0 mm 0.0 W/m2
00:38 22.6 °C 11.9 °C 1007 hPa SSW 14.3 km/h 22.5 km/h 51% 0 mm 0.0 W/m2
00:47 22.4 °C 11.8 °C 1007 hPa SSW 13 km/h 20.9 km/h 51% 0 mm 0.0 W/m2
00:52 22.3 °C 12 °C 1007 hPa SSW 16.3 km/h 19.3 km/h 52% 0 mm 0.0 W/m2
00:57 22.2 °C 11.9 °C 1007 hPa SSW 16.3 km/h 20.9 km/h 52% 0 mm 0.0 W/m2
01:02 22.1 °C 12.1 °C 1007 hPa SSW 13 km/h 19.3 km/h 53% 0 mm 0.0 W/m2
01:08 22 °C 12 °C 1006.7 hPa SSW 17.7 km/h 22.5 km/h 53% 0 mm 0.0 W/m2
01:17 21.9 °C 11.9 °C 1007 hPa SSW 20.9 km/h 20.9 km/h 53% 0 mm 0.0 W/m2
01:23 21.9 °C 11.9 °C 1007 hPa SSW 11.1 km/h 20.9 km/h 53% 0 mm 0.0 W/m2
01:28 21.9 °C 11.9 °C 1007 hPa SSW 16.3 km/h 19.3 km/h 53% 0 mm 0.0 W/m2
01:38 21.8 °C 12.1 °C 1007 hPa SSW 16.3 km/h 19.3 km/h 54% 0 mm 0.0 W/m2
01:43 21.7 °C 12 °C 1007 hPa SSW 14.3 km/h 16.1 km/h 54% 0 mm 0.0 W/m2
01:48 21.6 °C 12.2 °C 1007 hPa SSW 9.7 km/h 14.5 km/h 55% 0 mm 0.0 W/m2
01:53 21.6 °C 12.2 °C 1007 hPa SSW 11.1 km/h 17.7 km/h 55% 0 mm 0.0 W/m2
01:58 21.6 °C 11.9 °C 1007 hPa SSW 9.7 km/h 16.1 km/h 54% 0 mm 0.0 W/m2
02:03 21.5 °C 11.8 °C 1007 hPa SSW 9.7 km/h 16.1 km/h 54% 0 mm 0.0 W/m2
02:08 21.4 °C 12 °C 1007 hPa SSW 7.9 km/h 14.5 km/h 55% 0 mm 0.0 W/m2
02:13 21.4 °C 12 °C 1007 hPa SSW 13 km/h 17.7 km/h 55% 0 mm 0.0 W/m2
02:18 21.3 °C 11.9 °C 1007 hPa SSW 7.9 km/h 12.9 km/h 55% 0 mm 0.0 W/m2
02:28 21.2 °C 12.1 °C 1007 hPa SSW 13 km/h 14.5 km/h 56% 0 mm 0.0 W/m2
02:33 21.1 °C 12 °C 1007 hPa SSW 7.9 km/h 12.9 km/h 56% 0 mm 0.0 W/m2
02:39 21.1 °C 11.7 °C 1006.7 hPa SSW 7.9 km/h 14.5 km/h 55% 0 mm 0.0 W/m2
02:44 21.1 °C 12 °C 1006.7 hPa SSW 9.7 km/h 14.5 km/h 56% 0 mm 0.0 W/m2
02:53 20.9 °C 11.8 °C 1006.3 hPa SSW 11.1 km/h 14.5 km/h 56% 0 mm 0.0 W/m2
02:59 20.8 °C 11.7 °C 1006.3 hPa SSW 11.1 km/h 14.5 km/h 56% 0 mm 0.0 W/m2
03:04 20.8 °C 11.4 °C 1006.3 hPa SSW 9.7 km/h 14.5 km/h 55% 0 mm 0.0 W/m2
03:09 20.7 °C 11.6 °C 1006 hPa SSW 9.7 km/h 12.9 km/h 56% 0 mm 0.0 W/m2
03:14 20.6 °C 11.5 °C 1006.3 hPa SSW 13 km/h 14.5 km/h 56% 0 mm 0.0 W/m2
03:24 20.5 °C 11.7 °C 1006 hPa SSW 11.1 km/h 12.9 km/h 57% 0 mm 0.0 W/m2
03:29 20.4 °C 11.6 °C 1005.6 hPa SSW 9.7 km/h 11.3 km/h 57% 0 mm 0.0 W/m2
03:39 20.3 °C 11.5 °C 1005.6 hPa SSW 13 km/h 16.1 km/h 57% 0 mm 0.0 W/m2
03:45 20.3 °C 11.5 °C 1005.6 hPa SSW 7.9 km/h 14.5 km/h 57% 0 mm 0.0 W/m2
03:54 20.2 °C 11.7 °C 1005.6 hPa SSW 13 km/h 13 km/h 58% 0 mm 0.0 W/m2
03:59 20.1 °C 11.6 °C 1005.6 hPa SSW 7.9 km/h 12.9 km/h 58% 0 mm 0.0 W/m2
04:04 20.1 °C 11.6 °C 1005.6 hPa SSW 7.9 km/h 11.3 km/h 58% 0 mm 0.0 W/m2
04:09 20.1 °C 11.8 °C 1005.6 hPa SSW 9.7 km/h 12.9 km/h 59% 0 mm 0.0 W/m2
04:14 20 °C 11.5 °C 1005.6 hPa SSW 13 km/h 14.5 km/h 58% 0 mm 0.0 W/m2
04:19 20 °C 11.7 °C 1005.6 hPa SW 7.9 km/h 14.5 km/h 59% 0 mm 0.0 W/m2
04:24 20 °C 11.7 °C 1005.6 hPa SW 14.3 km/h 14.5 km/h 59% 0 mm 0.0 W/m2
04:29 19.9 °C 11.6 °C 1005.6 hPa SW 9.7 km/h 14.5 km/h 59% 0 mm 0.0 W/m2
04:34 19.9 °C 11.6 °C 1005.6 hPa SW 7.9 km/h 11.3 km/h 59% 0 mm 0.0 W/m2
04:39 19.8 °C 11.6 °C 1005.6 hPa SW 7.9 km/h 9.7 km/h 59% 0 mm 0.0 W/m2
04:45 19.8 °C 11.8 °C 1005.6 hPa SW 9.7 km/h 12.9 km/h 60% 0 mm 0.0 W/m2
04:50 19.7 °C 11.7 °C 1005.6 hPa SW 7.9 km/h 11.3 km/h 60% 0 mm 0.0 W/m2
04:59 19.6 °C 12.1 °C 1005.6 hPa SW 6.4 km/h 8 km/h 62% 0 mm 0.0 W/m2
05:04 19.4 °C 11.7 °C 1005.6 hPa SW 6.4 km/h 9.7 km/h 61% 0 mm 0.0 W/m2
05:09 19.4 °C 11.9 °C 1005.6 hPa SW 1.4 km/h 6.4 km/h 62% 0 mm 0.0 W/m2
05:15 19.3 °C 11.8 °C 1005.6 hPa Calm     62% 0 mm 0.0 W/m2
05:20 19.3 °C 11.8 °C 1005.6 hPa SW 6.4 km/h 6.4 km/h 62% 0 mm 0.0 W/m2
05:30 19.3 °C 12.1 °C 1005.6 hPa SW 7.9 km/h 9.7 km/h 63% 0 mm 0.0 W/m2
05:35 19.2 °C 12.2 °C 1005.6 hPa SW 9.7 km/h 9.7 km/h 64% 0 mm 0.0 W/m2
05:41 19.2 °C 12.2 °C 1005.6 hPa SW 6.4 km/h 11.3 km/h 64% 0 mm 0.0 W/m2
05:46 19.1 °C 12.1 °C 1005.6 hPa SW 3.2 km/h 6.4 km/h 64% 0 mm 0.0 W/m2
05:56 18.9 °C 12.2 °C 1005.6 hPa SW 6.4 km/h 11.3 km/h 65% 0 mm 0.0 W/m2
06:01 18.9 °C 12.2 °C 1006 hPa SW 6.4 km/h 14.5 km/h 65% 0 mm 0.0 W/m2
06:11 18.9 °C 12.2 °C 1006.3 hPa SW 7.9 km/h 16.1 km/h 65% 0 mm 0.0 W/m2
06:16 19 °C 12.3 °C 1006.3 hPa SW 9.7 km/h 16.1 km/h 65% 0 mm 0.0 W/m2
06:21 19 °C 12.3 °C 1006.3 hPa SW 9.7 km/h 14.5 km/h 65% 0 mm 0.0 W/m2
06:26 19 °C 12.3 °C 1006.3 hPa SW 7.9 km/h 11.3 km/h 65% 0 mm 0.0 W/m2
06:31 18.9 °C 12.2 °C 1006.3 hPa SW 6.4 km/h 9.7 km/h 65% 0 mm 0.0 W/m2
06:36 18.9 °C 12.2 °C 1006.3 hPa SW 6.4 km/h 8 km/h 65% 0 mm 5.0 W/m2
06:41 18.8 °C 12.1 °C 1006.3 hPa SW 7.9 km/h 9.7 km/h 65% 0 mm 9.0 W/m2
06:51 18.9 °C 12.2 °C 1006.7 hPa SW 9.7 km/h 11.3 km/h 65% 0 mm 16.0 W/m2
07:06 19.2 °C 12 °C 1006.7 hPa SW 9.7 km/h 14.5 km/h 63% 0 mm 47.0 W/m2
07:12 19.4 °C 12.2 °C 1007 hPa SW 11.1 km/h 14.5 km/h 63% 0 mm 63.0 W/m2
07:16 19.5 °C 12 °C 1007 hPa SW 6.4 km/h 14.5 km/h 62% 0 mm 81.0 W/m2
07:40 20.2 °C 11.9 °C 1007 hPa SW 13 km/h 17.7 km/h 59% 0 mm 169.0 W/m2
07:47 20.4 °C 12.1 °C 1007 hPa SW 7.9 km/h 17.7 km/h 59% 0 mm 213.0 W/m2
07:57 20.7 °C 11.9 °C 1007 hPa SW 13 km/h 17.7 km/h 57% 0 mm 253.0 W/m2
08:07 20.9 °C 11.8 °C 1007.3 hPa SW 16.3 km/h 19.3 km/h 56% 0 mm 292.0 W/m2
08:26 21.2 °C 11.5 °C 1007.3 hPa SW 20.9 km/h 24.1 km/h 54% 0 mm 348.0 W/m2
08:36 21.4 °C 11.4 °C 1007.3 hPa SSW 25.9 km/h 25.9 km/h 53% 0 mm 381.0 W/m2
08:47 21.7 °C 11.4 °C 1007.3 hPa SW 16.3 km/h 22.5 km/h 52% 0 mm 417.0 W/m2
09:02 22.3 °C 11.7 °C 1007.3 hPa SW 17.7 km/h 20.9 km/h 51% 0 mm 471.0 W/m2
09:12 22.7 °C 11.7 °C 1007.3 hPa SW 19.5 km/h 20.9 km/h 50% 0 mm 520.0 W/m2
09:30 23.1 °C 11.8 °C 1007.3 hPa SW 19.5 km/h 24.1 km/h 49% 0 mm 571.0 W/m2
09:37 23.4 °C 11.8 °C 1007.3 hPa SW 22.7 km/h 24.1 km/h 48% 0 mm 603.0 W/m2
09:46 23.6 °C 11.9 °C 1007.3 hPa SW 19.5 km/h 24.1 km/h 48% 0 mm 619.0 W/m2
09:52 24.1 °C 12.1 °C 1007.3 hPa SSW 19.5 km/h 20.9 km/h 47% 0 mm 649.0 W/m2
10:02 24.4 °C 12 °C 1007 hPa SW 24.1 km/h 27.4 km/h 46% 0 mm 679.0 W/m2
10:23 25.1 °C 12 °C 1007 hPa SW 20.9 km/h 29 km/h 44% 0 mm 721.0 W/m2
10:37 25.8 °C 11.9 °C 1007 hPa SW 22.7 km/h 29 km/h 42% 0 mm 758.0 W/m2
10:43 26.1 °C 11.8 °C 1007 hPa SW 19.5 km/h 29 km/h 41% 0 mm 784.0 W/m2
10:48 26.1 °C 11.8 °C 1007 hPa SW 19.5 km/h 29 km/h 41% 0 mm 784.0 W/m2
10:58 26.4 °C 12.1 °C 1006.7 hPa SSW 19.5 km/h 24.1 km/h 41% 0 mm 817.0 W/m2
11:13 27.2 °C 11.6 °C 1006.7 hPa SSW 16.3 km/h 25.7 km/h 38% 0 mm 849.0 W/m2
11:33 28 °C 11.5 °C 1006.3 hPa SW 20.9 km/h 29 km/h 36% 0 mm 884.0 W/m2
11:53 28.9 °C 11 °C 1006.3 hPa SSW 19.5 km/h 29 km/h 33% 0 mm 911.0 W/m2
12:13 29.4 °C 11 °C 1006.3 hPa South 17.7 km/h 24.1 km/h 32% 0 mm 932.0 W/m2
12:42 30 °C 11 °C 1006 hPa South 16.3 km/h 22.5 km/h 31% 0 mm 947.0 W/m2
12:53 30.6 °C 10.5 °C 1006 hPa South 16.3 km/h 22.5 km/h 29% 0 mm 954.0 W/m2
13:00 30.6 °C 10.5 °C 1006 hPa South 16.3 km/h 22.5 km/h 29% 0 mm 954.0 W/m2
13:08 30.9 °C 10.3 °C 1005.6 hPa SSW 22.7 km/h 24.1 km/h 28% 0 mm 956.0 W/m2
13:22 31.5 °C 10.2 °C 1005.6 hPa SW 24.1 km/h 24.1 km/h 27% 0 mm 954.0 W/m2
13:32 31.4 °C 10.2 °C 1005.6 hPa SSW 19.5 km/h 24.1 km/h 27% 0 mm 949.0 W/m2
13:38 31.9 °C 10.6 °C 1005.3 hPa SSW 20.9 km/h 25.7 km/h 27% 0 mm 946.0 W/m2
13:54 32.6 °C 10.6 °C 1005.3 hPa South 16.3 km/h 24.1 km/h 26% 0 mm 935.0 W/m2
14:13 32.4 °C 9.8 °C 1005 hPa SW 19.5 km/h 24.1 km/h 25% 0 mm 918.0 W/m2
14:19 32.7 °C 10.1 °C 1004.6 hPa South 27.4 km/h 27.4 km/h 25% 0 mm 905.0 W/m2
14:33 32.4 °C 9.8 °C 1004.6 hPa SW 24.1 km/h 27.4 km/h 25% 0 mm 893.0 W/m2
14:39 32.8 °C 10.2 °C 1004.6 hPa South 24.1 km/h 30.6 km/h 25% 0 mm 874.0 W/m2
14:49 32.8 °C 9.6 °C 1004.6 hPa SSW 17.7 km/h 32.2 km/h 24% 0 mm 856.0 W/m2
15:04 32.9 °C 9.7 °C 1004.3 hPa SSW 22.7 km/h 27.4 km/h 24% 0 mm 837.0 W/m2
15:41 33.3 °C 10 °C 1003.9 hPa WSW 19.5 km/h 27.4 km/h 24% 0 mm 759.0 W/m2
16:08 33.8 °C 9.1 °C 1003.9 hPa SSE 19.5 km/h 33.8 km/h 22% 0 mm 677.0 W/m2
16:14 33.7 °C 9 °C 1003.9 hPa SSW 20.9 km/h 22.5 km/h 22% 0 mm 650.0 W/m2
16:29 33.7 °C 9 °C 1003.9 hPa SSW 19.5 km/h 25.7 km/h 22% 0 mm 599.0 W/m2
16:50 33.8 °C 9.1 °C 1003.6 hPa SW 20.9 km/h 25.7 km/h 22% 0 mm 554.0 W/m2
16:59 33.6 °C 8.9 °C 1003.6 hPa SW 22.7 km/h 25.7 km/h 22% 0 mm 508.0 W/m2
17:14 33.3 °C 8 °C 1003.6 hPa SSW 20.9 km/h 27.4 km/h 21% 0 mm 452.0 W/m2
17:35 33.4 °C 8.1 °C 1003.9 hPa SSW 24.1 km/h 25.7 km/h 21% 0 mm 399.0 W/m2
17:44 33.2 °C 7.9 °C 1003.9 hPa SSW 17.7 km/h 22.5 km/h 21% 0 mm 345.0 W/m2
17:59 33.3 °C 8 °C 1003.9 hPa SW 25.9 km/h 27.4 km/h 21% 0 mm 304.0 W/m2
18:06 33 °C 7.8 °C 1003.9 hPa SSW 25.9 km/h 25.9 km/h 21% 0 mm 267.0 W/m2
18:14 32.8 °C 7.6 °C 1004.3 hPa South 16.3 km/h 24.1 km/h 21% 0 mm 230.0 W/m2
18:20 32.8 °C 7.6 °C 1004.3 hPa South 19.5 km/h 25.7 km/h 21% 0 mm 206.0 W/m2
18:27 32.7 °C 7.5 °C 1004.3 hPa South 20.9 km/h 27.4 km/h 21% 0 mm 183.0 W/m2
18:37 32.4 °C 8 °C 1004.3 hPa South 20.9 km/h 27.4 km/h 22% 0 mm 135.0 W/m2
18:45 32.2 °C 7.8 °C 1004.6 hPa South 19.5 km/h 27.4 km/h 22% 0 mm 93.0 W/m2
Canyon Roadhouse, Fishriver Canyon, Namibia
Compliments of Weather Underground - 2.25 mb